createdAt,value
2023-02-22T00:00:43.145Z,100.00
2023-02-22T00:02:51.507Z,100.00
2023-02-22T00:04:59.397Z,100.00
2023-02-22T00:07:07.378Z,100.00
2023-02-22T00:09:20.874Z,100.00
2023-02-22T00:11:30.657Z,100.00
2023-02-22T00:13:39.540Z,100.00
2023-02-22T00:15:50.209Z,100.00
2023-02-22T00:17:58.459Z,100.00
2023-02-22T00:20:08.845Z,100.00
2023-02-22T00:22:28.948Z,100.00
2023-02-22T00:24:36.795Z,100.00
2023-02-22T00:26:47.109Z,100.00
2023-02-22T00:28:56.820Z,100.00
2023-02-22T00:31:09.843Z,100.00
2023-02-22T00:33:19.050Z,100.00
2023-02-22T00:35:28.573Z,100.00
2023-02-22T00:37:36.469Z,100.00
2023-02-22T00:39:44.896Z,100.00
2023-02-22T00:41:54.377Z,100.00
2023-02-22T00:44:02.456Z,100.00
2023-02-22T00:46:12.979Z,100.00
2023-02-22T00:48:20.882Z,100.00
2023-02-22T00:50:32.548Z,100.00
2023-02-22T00:52:41.255Z,100.00
2023-02-22T00:54:49.701Z,100.00
2023-02-22T00:57:01.202Z,100.00
2023-02-22T00:59:10.026Z,100.00
2023-02-22T01:01:20.888Z,100.00
2023-02-22T01:03:32.274Z,100.00
2023-02-22T01:05:41.164Z,100.00
2023-02-22T01:07:53.006Z,100.00
2023-02-22T01:10:02.312Z,100.00
2023-02-22T01:12:11.125Z,100.00
2023-02-22T01:14:21.173Z,100.00
2023-02-22T01:16:32.087Z,100.00
2023-02-22T01:18:40.402Z,100.00
2023-02-22T01:20:49.141Z,100.00
2023-02-22T01:23:00.032Z,100.00
2023-02-22T01:25:11.597Z,100.00
2023-02-22T01:27:20.729Z,100.00
2023-02-22T01:29:28.691Z,100.00
2023-02-22T01:31:39.184Z,100.00
2023-02-22T01:33:51.018Z,100.00
2023-02-22T01:35:59.799Z,100.00
2023-02-22T01:38:10.476Z,100.00
2023-02-22T01:40:24.121Z,100.00
2023-02-22T01:42:32.392Z,100.00
2023-02-22T01:44:41.996Z,100.00
2023-02-22T01:46:55.668Z,100.00
2023-02-22T01:49:07.508Z,100.00
2023-02-22T01:51:20.418Z,100.00
2023-02-22T01:53:32.206Z,100.00
2023-02-22T01:55:42.156Z,100.00
2023-02-22T01:57:51.391Z,100.00
2023-02-22T02:00:09.995Z,100.00
2023-02-22T02:02:25.340Z,100.00
2023-02-22T02:04:37.342Z,100.00
2023-02-22T02:06:45.778Z,100.00
2023-02-22T02:09:02.622Z,100.00
2023-02-22T02:11:11.713Z,100.00
2023-02-22T02:13:20.078Z,100.00
2023-02-22T02:15:30.953Z,100.00
2023-02-22T02:17:41.520Z,100.00
2023-02-22T02:20:02.179Z,100.00
2023-02-22T02:22:33.126Z,100.00
2023-02-22T02:25:18.317Z,100.00
2023-02-22T02:27:28.951Z,100.00
2023-02-22T02:30:11.864Z,100.00
2023-02-22T02:32:36.864Z,100.00
2023-02-22T02:34:53.450Z,100.00
2023-02-22T02:37:06.967Z,100.00
2023-02-22T02:39:24.634Z,100.00
2023-02-22T02:41:38.730Z,100.00
2023-02-22T02:43:54.767Z,100.00
2023-02-22T02:46:10.498Z,100.00
2023-02-22T02:48:26.300Z,100.00
2023-02-22T02:50:39.680Z,100.00
2023-02-22T02:52:49.433Z,100.00
2023-02-22T02:54:58.829Z,100.00
2023-02-22T02:57:07.266Z,100.00
2023-02-22T02:59:29.858Z,100.00
2023-02-22T03:01:51.514Z,100.00
2023-02-22T03:04:24.680Z,100.00
2023-02-22T03:07:08.801Z,100.00
2023-02-22T03:09:27.717Z,100.00
2023-02-22T03:11:48.538Z,100.00
2023-02-22T03:14:04.596Z,100.00
2023-02-22T03:16:23.750Z,100.00
2023-02-22T03:18:37.152Z,100.00
2023-02-22T03:20:55.813Z,100.00
2023-02-22T03:23:09.992Z,100.00
2023-02-22T03:25:25.430Z,100.00
2023-02-22T03:27:46.586Z,100.00
2023-02-22T03:30:00.510Z,100.00
2023-02-22T03:32:15.080Z,100.00
2023-02-22T03:34:27.150Z,100.00
2023-02-22T03:36:42.347Z,100.00
2023-02-22T03:38:52.324Z,100.00
2023-02-22T03:41:05.039Z,100.00
2023-02-22T03:43:18.178Z,100.00
2023-02-22T03:45:30.129Z,100.00
2023-02-22T03:47:42.871Z,100.00
2023-02-22T03:49:57.984Z,100.00
2023-02-22T03:52:12.926Z,100.00
2023-02-22T03:54:22.302Z,100.00
2023-02-22T03:56:36.563Z,100.00
2023-02-22T03:58:46.731Z,100.00
2023-02-22T04:00:56.165Z,100.00
2023-02-22T04:03:05.054Z,100.00
2023-02-22T04:05:14.289Z,100.00
2023-02-22T04:07:25.375Z,100.00
2023-02-22T04:09:33.691Z,100.00
2023-02-22T04:11:41.461Z,100.00
2023-02-22T04:13:49.533Z,100.00
2023-02-22T04:16:00.244Z,100.00
2023-02-22T04:18:09.331Z,100.00
2023-02-22T04:20:20.129Z,100.00
2023-02-22T04:22:43.858Z,100.00
2023-02-22T04:24:52.063Z,100.00
2023-02-22T04:27:01.498Z,100.00
2023-02-22T04:29:10.389Z,100.00
2023-02-22T04:31:20.886Z,100.00
2023-02-22T04:33:30.473Z,100.00
2023-02-22T04:35:38.303Z,100.00
2023-02-22T04:37:50.128Z,100.00
2023-02-22T04:39:58.409Z,100.00
2023-02-22T04:42:06.570Z,100.00
2023-02-22T04:44:15.326Z,100.00
2023-02-22T04:46:23.691Z,100.00
2023-02-22T04:48:36.532Z,100.00
2023-02-22T04:50:44.629Z,100.00
2023-02-22T04:52:56.275Z,100.00
2023-02-22T04:55:04.925Z,100.00
2023-02-22T04:57:13.788Z,100.00
2023-02-22T04:59:22.302Z,100.00
2023-02-22T05:01:36.405Z,100.00
2023-02-22T05:03:45.168Z,100.00
2023-02-22T05:05:54.870Z,100.00
2023-02-22T05:08:05.836Z,100.00
2023-02-22T05:10:14.810Z,100.00
2023-02-22T05:12:22.806Z,100.00
2023-02-22T05:14:33.341Z,100.00
2023-02-22T05:16:41.192Z,100.00
2023-02-22T05:18:49.335Z,100.00
2023-02-22T05:20:57.271Z,100.00
2023-02-22T05:23:08.545Z,100.00
2023-02-22T05:25:16.575Z,100.00
2023-02-22T05:27:24.396Z,100.00
2023-02-22T05:29:32.561Z,100.00
2023-02-22T05:31:42.176Z,100.00
2023-02-22T05:33:50.233Z,100.00
2023-02-22T05:35:58.344Z,100.00
2023-02-22T05:38:09.418Z,100.00
2023-02-22T05:40:17.525Z,100.00
2023-02-22T05:42:25.619Z,100.00
2023-02-22T05:44:33.420Z,100.00
2023-02-22T05:46:41.294Z,100.00
2023-02-22T05:48:49.074Z,100.00
2023-02-22T05:50:56.975Z,100.00
2023-02-22T05:53:05.737Z,100.00
2023-02-22T05:55:18.015Z,100.00
2023-02-22T05:57:27.268Z,100.00
2023-02-22T05:59:35.342Z,100.00
2023-02-22T06:01:44.893Z,100.00
2023-02-22T06:03:53.252Z,100.00
2023-02-22T06:06:01.100Z,100.00
2023-02-22T06:08:09.960Z,100.00
2023-02-22T06:10:20.858Z,100.00
2023-02-22T06:12:28.810Z,100.00
2023-02-22T06:14:36.943Z,100.00
2023-02-22T06:16:44.841Z,100.00
2023-02-22T06:18:52.937Z,100.00
2023-02-22T06:21:01.162Z,100.00
2023-02-22T06:23:09.077Z,100.00
2023-02-22T06:25:22.492Z,100.00
2023-02-22T06:27:34.113Z,100.00
2023-02-22T06:29:41.983Z,100.00
2023-02-22T06:31:49.928Z,100.00
2023-02-22T06:34:00.641Z,100.00
2023-02-22T06:36:09.795Z,100.00
2023-02-22T06:38:24.458Z,100.00
2023-02-22T06:40:34.884Z,100.00
2023-02-22T06:42:43.386Z,100.00
2023-02-22T06:44:51.838Z,100.00
2023-02-22T06:46:59.930Z,100.00
2023-02-22T06:49:08.248Z,100.00
2023-02-22T06:51:16.273Z,100.00
2023-02-22T06:53:24.171Z,100.00
2023-02-22T06:55:36.138Z,100.00
2023-02-22T06:57:43.925Z,100.00
2023-02-22T06:59:53.346Z,100.00
2023-02-22T07:02:01.431Z,100.00
2023-02-22T07:04:12.390Z,100.00
2023-02-22T07:06:20.251Z,100.00
2023-02-22T07:08:29.530Z,100.00
2023-02-22T07:10:41.300Z,100.00
2023-02-22T07:12:49.200Z,100.00
2023-02-22T07:14:58.237Z,100.00
2023-02-22T07:17:06.155Z,100.00
2023-02-22T07:19:14.262Z,100.00
2023-02-22T07:21:23.722Z,100.00
2023-02-22T07:23:31.532Z,100.00
2023-02-22T07:25:42.128Z,100.00
2023-02-22T07:27:52.563Z,100.00
2023-02-22T07:30:00.699Z,100.00
2023-02-22T07:32:10.068Z,100.00
2023-02-22T07:34:17.951Z,100.00
2023-02-22T07:36:26.207Z,100.00
2023-02-22T07:38:34.336Z,100.00
2023-02-22T07:40:45.814Z,98.83
2023-02-22T07:42:57.831Z,97.36
2023-02-22T07:45:06.449Z,95.89
2023-02-22T07:47:15.548Z,96.80
2023-02-22T07:49:23.336Z,98.10
2023-02-22T07:51:31.294Z,97.84
2023-02-22T07:53:39.258Z,98.43
2023-02-22T07:55:51.292Z,98.20
2023-02-22T07:58:01.725Z,98.23
2023-02-22T08:00:11.038Z,97.99
2023-02-22T08:02:29.754Z,96.73
2023-02-22T08:04:39.552Z,96.85
2023-02-22T08:06:47.585Z,96.73
2023-02-22T08:08:55.705Z,94.51
2023-02-22T08:11:06.528Z,94.37
2023-02-22T08:13:26.809Z,91.55
2023-02-22T08:15:37.872Z,90.85
2023-02-22T08:17:46.610Z,90.21
2023-02-22T08:19:54.369Z,89.89
2023-02-22T08:22:04.839Z,89.19
2023-02-22T08:24:13.956Z,87.37
2023-02-22T08:26:25.614Z,86.64
2023-02-22T08:28:33.417Z,86.98
2023-02-22T08:30:43.848Z,86.55
2023-02-22T08:32:54.858Z,87.74
2023-02-22T08:35:04.058Z,88.16
2023-02-22T08:37:12.202Z,87.68
2023-02-22T08:39:19.965Z,87.31
2023-02-22T08:41:30.489Z,89.07
2023-02-22T08:43:38.637Z,87.63
2023-02-22T08:45:48.280Z,86.92
2023-02-22T08:47:56.085Z,85.95
2023-02-22T08:50:04.062Z,86.10
2023-02-22T08:52:12.261Z,84.98
2023-02-22T08:54:20.183Z,83.73
2023-02-22T08:56:30.654Z,84.45
2023-02-22T08:58:38.710Z,84.79
2023-02-22T09:00:47.369Z,83.71
2023-02-22T09:02:56.140Z,84.26
2023-02-22T09:05:05.888Z,83.06
2023-02-22T09:07:14.207Z,83.01
2023-02-22T09:09:22.508Z,83.62
2023-02-22T09:11:33.153Z,83.09
2023-02-22T09:13:41.002Z,82.70
2023-02-22T09:15:48.885Z,81.44
2023-02-22T09:17:57.049Z,80.66
2023-02-22T09:20:05.019Z,78.58
2023-02-22T09:22:13.047Z,76.60
2023-02-22T09:24:21.041Z,73.94
2023-02-22T09:26:28.968Z,69.19
2023-02-22T09:28:39.847Z,63.79
2023-02-22T09:30:47.987Z,59.27
2023-02-22T09:32:58.131Z,54.84
2023-02-22T09:35:08.854Z,51.14
2023-02-22T09:37:17.964Z,47.56
2023-02-22T09:39:28.931Z,44.50
2023-02-22T09:41:43.008Z,43.83
2023-02-22T09:44:01.613Z,42.47
2023-02-22T09:46:19.513Z,41.61
2023-02-22T09:48:28.390Z,40.67
2023-02-22T09:50:42.404Z,41.22
2023-02-22T09:52:57.569Z,40.26
2023-02-22T09:55:12.227Z,41.19
2023-02-22T09:57:26.798Z,41.64
2023-02-22T09:59:43.204Z,42.26
2023-02-22T10:01:58.387Z,42.85
2023-02-22T10:04:14.043Z,43.95
2023-02-22T10:06:24.395Z,44.32
2023-02-22T10:08:35.163Z,43.77
2023-02-22T10:10:46.222Z,43.07
2023-02-22T10:13:06.478Z,41.99
2023-02-22T10:15:47.226Z,41.36
2023-02-22T10:18:05.025Z,42.20
2023-02-22T10:20:41.142Z,42.76
2023-02-22T10:23:01.328Z,42.50
2023-02-22T10:25:18.218Z,40.81
2023-02-22T10:27:33.172Z,41.98
2023-02-22T10:29:45.170Z,40.85
2023-02-22T10:32:02.923Z,39.86
2023-02-22T10:34:17.258Z,39.21
2023-02-22T10:36:26.972Z,40.03
2023-02-22T10:38:36.675Z,39.63
2023-02-22T10:40:49.086Z,38.86
2023-02-22T10:42:59.257Z,38.12
2023-02-22T10:45:07.954Z,37.70
2023-02-22T10:47:21.948Z,38.67
2023-02-22T10:49:34.979Z,40.52
2023-02-22T10:51:42.904Z,41.04
2023-02-22T10:54:01.521Z,42.68
2023-02-22T10:56:16.381Z,43.24
2023-02-22T10:58:24.587Z,43.25
2023-02-22T11:00:37.499Z,44.68
2023-02-22T11:02:54.124Z,46.14
2023-02-22T11:05:06.335Z,47.08
2023-02-22T11:07:23.426Z,48.62
2023-02-22T11:09:31.301Z,48.97
2023-02-22T11:11:40.109Z,49.61
2023-02-22T11:13:47.988Z,49.99
2023-02-22T11:15:56.700Z,50.61
2023-02-22T11:18:08.920Z,50.37
2023-02-22T11:20:25.919Z,50.54
2023-02-22T11:22:41.183Z,50.83
2023-02-22T11:24:58.104Z,51.15
2023-02-22T11:27:09.154Z,51.59
2023-02-22T11:29:24.879Z,50.69
2023-02-22T11:31:33.000Z,51.29
2023-02-22T11:33:52.603Z,52.00
2023-02-22T11:36:04.935Z,52.29
2023-02-22T11:38:17.408Z,51.94
2023-02-22T11:40:28.190Z,52.05
2023-02-22T11:42:36.202Z,52.42
2023-02-22T11:44:45.217Z,53.16
2023-02-22T11:46:55.840Z,53.17
2023-02-22T11:49:11.121Z,54.13
2023-02-22T11:51:27.649Z,54.44
2023-02-22T11:53:49.564Z,54.67
2023-02-22T11:56:14.090Z,54.86
2023-02-22T11:58:36.826Z,55.59
2023-02-22T12:00:56.881Z,54.32
2023-02-22T12:03:37.003Z,55.79
2023-02-22T12:06:08.404Z,57.63
2023-02-22T12:08:28.926Z,56.04
2023-02-22T12:10:50.936Z,56.66
2023-02-22T12:13:09.768Z,56.96
2023-02-22T12:15:27.319Z,56.70
2023-02-22T12:17:59.397Z,57.29
2023-02-22T12:20:21.532Z,57.81
2023-02-22T12:22:36.597Z,58.00
2023-02-22T12:24:53.360Z,59.47
2023-02-22T12:27:06.855Z,58.28
2023-02-22T12:29:19.441Z,58.17
2023-02-22T12:31:34.033Z,58.51
2023-02-22T12:33:52.443Z,57.00
2023-02-22T12:36:03.610Z,57.00
2023-02-22T12:38:23.253Z,57.82
2023-02-22T12:40:38.296Z,56.72
2023-02-22T12:42:56.378Z,57.89
2023-02-22T12:45:10.391Z,58.52
2023-02-22T12:47:24.851Z,57.09
2023-02-22T12:49:39.040Z,56.34
2023-02-22T12:51:50.035Z,56.77
2023-02-22T12:54:08.169Z,57.36
2023-02-22T12:56:24.736Z,56.49
2023-02-22T12:58:39.551Z,57.00
2023-02-22T13:00:51.065Z,57.12
2023-02-22T13:03:03.696Z,55.51
2023-02-22T13:05:18.152Z,57.13
2023-02-22T13:07:43.075Z,55.94
2023-02-22T13:10:14.412Z,56.19
2023-02-22T13:12:27.808Z,56.04
2023-02-22T13:14:47.633Z,56.98
2023-02-22T13:17:02.072Z,54.96
2023-02-22T13:19:23.573Z,55.54
2023-02-22T13:21:40.651Z,56.36
2023-02-22T13:24:03.465Z,55.92
2023-02-22T13:26:21.596Z,55.48
2023-02-22T13:28:38.260Z,56.79
2023-02-22T13:30:55.208Z,56.16
2023-02-22T13:33:31.607Z,53.78
2023-02-22T13:35:56.658Z,53.61
2023-02-22T13:38:37.372Z,54.38
2023-02-22T13:41:10.014Z,54.79
2023-02-22T13:43:37.605Z,54.96
2023-02-22T13:46:08.524Z,54.76
2023-02-22T13:48:45.224Z,55.21
2023-02-22T13:51:07.499Z,55.63
2023-02-22T13:53:19.933Z,54.94
2023-02-22T13:55:32.745Z,54.50
2023-02-22T13:57:48.322Z,54.97
2023-02-22T14:00:28.843Z,55.44
2023-02-22T14:03:01.772Z,55.46
2023-02-22T14:05:50.028Z,54.34
2023-02-22T14:07:58.924Z,55.44
2023-02-22T14:10:07.141Z,57.11
2023-02-22T14:12:53.452Z,56.30
2023-02-22T14:15:29.842Z,56.85
2023-02-22T14:17:39.646Z,56.49
2023-02-22T14:20:20.137Z,57.13
2023-02-22T14:22:31.855Z,56.86
2023-02-22T14:24:46.155Z,58.08
2023-02-22T14:27:06.617Z,57.80
2023-02-22T14:29:22.030Z,57.65
2023-02-22T14:31:37.266Z,56.31
2023-02-22T14:34:07.807Z,58.13
2023-02-22T14:36:16.138Z,58.11
2023-02-22T14:38:25.263Z,58.21
2023-02-22T14:40:36.212Z,58.55
2023-02-22T14:42:48.811Z,59.54
2023-02-22T14:45:03.364Z,60.13
2023-02-22T14:47:21.035Z,59.63
2023-02-22T14:49:33.137Z,60.19
2023-02-22T14:51:45.192Z,60.34
2023-02-22T14:53:56.879Z,59.91
2023-02-22T14:56:08.887Z,61.21
2023-02-22T14:58:21.189Z,61.02
2023-02-22T15:00:42.233Z,60.92
2023-02-22T15:02:52.437Z,61.24
2023-02-22T15:05:01.392Z,60.66
2023-02-22T15:07:22.346Z,60.09
2023-02-22T15:09:37.702Z,59.00
2023-02-22T15:11:46.389Z,60.13
2023-02-22T15:13:55.591Z,58.97
2023-02-22T15:16:09.080Z,58.51
2023-02-22T15:18:27.344Z,58.79
2023-02-22T15:20:39.453Z,59.27
2023-02-22T15:22:47.385Z,59.24
2023-02-22T15:25:03.021Z,59.64
2023-02-22T15:27:17.925Z,59.35
2023-02-22T15:29:27.847Z,59.10
2023-02-22T15:31:41.403Z,59.28
2023-02-22T15:33:53.152Z,59.94
2023-02-22T15:36:00.760Z,61.04
2023-02-22T15:38:21.803Z,61.28
2023-02-22T15:40:33.355Z,62.32
2023-02-22T15:42:47.164Z,63.67
2023-02-22T15:44:56.828Z,63.34
2023-02-22T15:47:08.309Z,63.80
2023-02-22T15:49:29.443Z,65.59
2023-02-22T15:51:40.500Z,65.74
2023-02-22T15:53:50.675Z,65.79
2023-02-22T15:56:00.772Z,65.38
2023-02-22T15:58:13.832Z,66.58
2023-02-22T16:00:33.605Z,67.23
2023-02-22T16:02:44.500Z,67.07
2023-02-22T16:04:59.551Z,68.09
2023-02-22T16:07:17.148Z,68.60
2023-02-22T16:09:27.203Z,69.92
2023-02-22T16:11:40.408Z,70.47
2023-02-22T16:13:55.526Z,71.29
2023-02-22T16:16:05.986Z,72.42
2023-02-22T16:18:30.079Z,73.75
2023-02-22T16:20:38.919Z,74.96
2023-02-22T16:22:49.530Z,75.13
2023-02-22T16:25:16.414Z,75.30
2023-02-22T16:27:26.713Z,75.59
2023-02-22T16:29:34.698Z,75.81
2023-02-22T16:31:43.457Z,76.48
2023-02-22T16:33:54.764Z,77.32
2023-02-22T16:36:08.685Z,77.41
2023-02-22T16:38:17.558Z,78.56
2023-02-22T16:40:27.536Z,79.44
2023-02-22T16:42:35.374Z,79.84
2023-02-22T16:44:43.293Z,80.18
2023-02-22T16:46:51.132Z,80.83
2023-02-22T16:49:03.552Z,81.04
2023-02-22T16:51:19.743Z,82.07
2023-02-22T16:53:33.619Z,82.14
2023-02-22T16:55:41.472Z,81.59
2023-02-22T16:57:51.510Z,82.10
2023-02-22T16:59:59.592Z,82.27
2023-02-22T17:02:08.842Z,83.03
2023-02-22T17:04:24.336Z,83.45
2023-02-22T17:06:32.929Z,83.74
2023-02-22T17:08:41.052Z,83.53
2023-02-22T17:10:51.731Z,83.64
2023-02-22T17:13:07.213Z,84.73
2023-02-22T17:15:25.284Z,85.16
2023-02-22T17:17:33.109Z,85.68
2023-02-22T17:19:43.955Z,86.41
2023-02-22T17:21:52.208Z,87.17
2023-02-22T17:24:00.163Z,88.21
2023-02-22T17:26:08.351Z,87.73
2023-02-22T17:28:16.973Z,87.86
2023-02-22T17:30:26.812Z,87.49
2023-02-22T17:32:34.987Z,87.10
2023-02-22T17:34:45.479Z,87.08
2023-02-22T17:36:53.695Z,87.26
2023-02-22T17:39:03.178Z,87.38
2023-02-22T17:41:11.089Z,87.72
2023-02-22T17:43:20.710Z,88.37
2023-02-22T17:45:28.804Z,89.25
2023-02-22T17:47:36.828Z,89.36
2023-02-22T17:49:47.228Z,89.53
2023-02-22T17:51:55.984Z,89.21
2023-02-22T17:54:03.786Z,89.44
2023-02-22T17:56:13.638Z,89.58
2023-02-22T17:58:22.377Z,89.58
2023-02-22T18:00:35.965Z,90.23
2023-02-22T18:02:44.788Z,90.88
2023-02-22T18:04:55.723Z,91.10
2023-02-22T18:07:04.479Z,91.14
2023-02-22T18:09:17.853Z,91.15
2023-02-22T18:11:26.736Z,91.70
2023-02-22T18:13:34.569Z,92.12
2023-02-22T18:15:43.483Z,92.46
2023-02-22T18:17:51.983Z,93.22
2023-02-22T18:20:02.678Z,93.65
2023-02-22T18:22:10.777Z,94.44
2023-02-22T18:24:18.681Z,94.79
2023-02-22T18:26:29.012Z,95.40
2023-02-22T18:28:37.310Z,96.00
2023-02-22T18:30:46.224Z,96.17
2023-02-22T18:32:54.129Z,96.40
2023-02-22T18:35:05.246Z,96.58
2023-02-22T18:37:13.196Z,96.75
2023-02-22T18:39:21.196Z,96.93
2023-02-22T18:41:29.221Z,97.60
2023-02-22T18:43:37.235Z,97.74
2023-02-22T18:45:45.106Z,98.43
2023-02-22T18:47:53.500Z,98.29
2023-02-22T18:50:04.096Z,97.73
2023-02-22T18:52:12.992Z,97.50
2023-02-22T18:54:22.384Z,97.74
2023-02-22T18:56:34.119Z,98.49
2023-02-22T18:58:43.686Z,98.95
2023-02-22T19:00:52.138Z,99.35
2023-02-22T19:03:00.136Z,99.63
2023-02-22T19:05:11.237Z,100.00
2023-02-22T19:07:22.125Z,100.00
2023-02-22T19:09:30.806Z,99.36
2023-02-22T19:11:44.937Z,98.78
2023-02-22T19:13:55.288Z,97.47
2023-02-22T19:16:06.174Z,96.83
2023-02-22T19:18:17.216Z,95.52
2023-02-22T19:20:34.122Z,94.73
2023-02-22T19:22:42.686Z,93.96
2023-02-22T19:24:54.354Z,93.91
2023-02-22T19:27:03.020Z,93.84
2023-02-22T19:29:11.742Z,94.24
2023-02-22T19:31:25.996Z,95.14
2023-02-22T19:33:34.008Z,96.15
2023-02-22T19:35:48.309Z,94.89
2023-02-22T19:37:57.321Z,94.47
2023-02-22T19:40:09.248Z,94.08
2023-02-22T19:42:17.238Z,94.61
2023-02-22T19:44:25.245Z,95.73
2023-02-22T19:46:34.902Z,96.58
2023-02-22T19:48:44.038Z,97.49
2023-02-22T19:50:57.945Z,97.78
2023-02-22T19:53:07.591Z,97.21
2023-02-22T19:55:16.069Z,97.07
2023-02-22T19:57:25.020Z,97.17
2023-02-22T19:59:32.999Z,97.17
2023-02-22T20:01:41.457Z,97.07
2023-02-22T20:03:52.458Z,97.43
2023-02-22T20:06:03.029Z,96.94
2023-02-22T20:08:11.687Z,97.66
2023-02-22T20:10:19.733Z,98.29
2023-02-22T20:12:27.613Z,97.75
2023-02-22T20:14:35.750Z,98.12
2023-02-22T20:16:43.679Z,98.38
2023-02-22T20:18:52.393Z,98.62
2023-02-22T20:21:04.087Z,99.17
2023-02-22T20:23:13.377Z,99.66
2023-02-22T20:25:21.536Z,100.00
2023-02-22T20:27:29.427Z,100.00
2023-02-22T20:29:37.490Z,100.00
2023-02-22T20:31:49.459Z,100.00
2023-02-22T20:33:59.775Z,100.00
2023-02-22T20:36:12.024Z,100.00
2023-02-22T20:38:20.667Z,100.00
2023-02-22T20:40:28.453Z,100.00
2023-02-22T20:42:36.576Z,100.00
2023-02-22T20:44:45.197Z,100.00
2023-02-22T20:46:53.291Z,100.00
2023-02-22T20:49:03.560Z,100.00
2023-02-22T20:51:16.743Z,100.00
2023-02-22T20:53:24.780Z,100.00
2023-02-22T20:55:32.705Z,100.00
2023-02-22T20:57:40.640Z,100.00
2023-02-22T20:59:50.869Z,100.00
2023-02-22T21:02:01.362Z,100.00
2023-02-22T21:04:13.681Z,100.00
2023-02-22T21:06:24.821Z,100.00
2023-02-22T21:08:32.748Z,100.00
2023-02-22T21:10:44.981Z,100.00
2023-02-22T21:12:53.964Z,100.00
2023-02-22T21:15:01.866Z,100.00
2023-02-22T21:17:10.621Z,100.00
2023-02-22T21:19:27.636Z,100.00
2023-02-22T21:21:38.511Z,100.00
2023-02-22T21:23:52.496Z,100.00
2023-02-22T21:26:00.307Z,100.00
2023-02-22T21:28:08.495Z,100.00
2023-02-22T21:30:16.726Z,100.00
2023-02-22T21:32:24.660Z,100.00
2023-02-22T21:34:33.018Z,100.00
2023-02-22T21:36:43.759Z,100.00
2023-02-22T21:38:53.436Z,100.00
2023-02-22T21:41:03.428Z,100.00
2023-02-22T21:43:13.243Z,100.00
2023-02-22T21:45:22.677Z,100.00
2023-02-22T21:47:31.297Z,100.00
2023-02-22T21:49:39.250Z,100.00
2023-02-22T21:51:49.800Z,100.00
2023-02-22T21:53:57.794Z,100.00
2023-02-22T21:56:07.394Z,100.00
2023-02-22T21:58:15.831Z,100.00
2023-02-22T22:00:29.368Z,100.00
2023-02-22T22:02:38.218Z,100.00
2023-02-22T22:04:46.063Z,100.00
2023-02-22T22:06:58.127Z,100.00
2023-02-22T22:09:18.194Z,100.00
2023-02-22T22:11:27.234Z,100.00
2023-02-22T22:13:35.210Z,100.00
2023-02-22T22:15:43.164Z,100.00
2023-02-22T22:17:51.426Z,100.00
2023-02-22T22:19:59.317Z,100.00
2023-02-22T22:22:10.637Z,100.00
2023-02-22T22:24:20.634Z,100.00
2023-02-22T22:26:30.901Z,100.00
2023-02-22T22:28:38.693Z,100.00
2023-02-22T22:30:46.691Z,100.00
2023-02-22T22:32:54.589Z,100.00
2023-02-22T22:35:04.649Z,100.00
2023-02-22T22:37:16.265Z,100.00
2023-02-22T22:39:24.327Z,100.00
2023-02-22T22:41:34.018Z,100.00
2023-02-22T22:43:43.811Z,100.00
2023-02-22T22:45:51.492Z,100.00
2023-02-22T22:47:59.410Z,100.00
2023-02-22T22:50:10.994Z,100.00
2023-02-22T22:52:21.491Z,100.00
2023-02-22T22:54:29.585Z,100.00
2023-02-22T22:56:38.142Z,100.00
2023-02-22T22:58:49.513Z,100.00
2023-02-22T23:00:59.904Z,100.00
2023-02-22T23:03:09.657Z,100.00
2023-02-22T23:05:18.243Z,100.00
2023-02-22T23:07:28.748Z,100.00
2023-02-22T23:09:39.160Z,100.00
2023-02-22T23:11:50.866Z,100.00
2023-02-22T23:14:00.604Z,100.00
2023-02-22T23:16:12.432Z,100.00
2023-02-22T23:18:21.941Z,100.00
2023-02-22T23:20:30.130Z,100.00
2023-02-22T23:22:48.651Z,100.00
2023-02-22T23:24:58.107Z,100.00
2023-02-22T23:27:07.346Z,100.00
2023-02-22T23:29:15.224Z,100.00
2023-02-22T23:31:23.142Z,100.00
2023-02-22T23:33:31.509Z,100.00
2023-02-22T23:35:39.691Z,100.00
2023-02-22T23:37:53.798Z,100.00
2023-02-22T23:40:05.523Z,100.00
2023-02-22T23:42:16.975Z,100.00
2023-02-22T23:44:27.273Z,100.00
2023-02-22T23:46:36.613Z,100.00
2023-02-22T23:48:47.015Z,100.00
2023-02-22T23:50:54.835Z,100.00
2023-02-22T23:53:06.110Z,100.00
2023-02-22T23:55:14.042Z,100.00
2023-02-22T23:57:21.839Z,100.00
2023-02-22T23:59:30.177Z,100.00
